sensor_id;sensor_type;location;lat;lon;timestamp;pressure;altitude;pressure_sealevel;temperature
68911;BMP180;55953;51.650;-0.522;2023-02-08T00:01:23;102906.20;;;-0.30
68911;BMP180;55953;51.650;-0.522;2023-02-08T00:03:52;102907.00;;;-0.38
68911;BMP180;55953;51.650;-0.522;2023-02-08T00:06:20;102907.40;;;-0.30
68911;BMP180;55953;51.650;-0.522;2023-02-08T00:08:48;102907.00;;;-0.24
68911;BMP180;55953;51.650;-0.522;2023-02-08T00:11:16;102903.00;;;-0.40
68911;BMP180;55953;51.650;-0.522;2023-02-08T00:13:44;102900.80;;;-0.60
68911;BMP180;55953;51.650;-0.522;2023-02-08T00:16:14;102899.20;;;-0.70
68911;BMP180;55953;51.650;-0.522;2023-02-08T00:18:42;102907.40;;;-0.68
68911;BMP180;55953;51.650;-0.522;2023-02-08T00:21:14;102909.60;;;-0.70
68911;BMP180;55953;51.650;-0.522;2023-02-08T00:23:43;102908.40;;;-0.70
68911;BMP180;55953;51.650;-0.522;2023-02-08T00:26:12;102904.60;;;-0.70
68911;BMP180;55953;51.650;-0.522;2023-02-08T00:28:41;102903.20;;;-0.70
68911;BMP180;55953;51.650;-0.522;2023-02-08T00:31:09;102914.60;;;-0.70
68911;BMP180;55953;51.650;-0.522;2023-02-08T00:33:37;102914.00;;;-0.70
68911;BMP180;55953;51.650;-0.522;2023-02-08T00:36:07;102906.60;;;-0.70
68911;BMP180;55953;51.650;-0.522;2023-02-08T00:38:36;102907.20;;;-0.70
68911;BMP180;55953;51.650;-0.522;2023-02-08T00:41:04;102903.00;;;-0.60
68911;BMP180;55953;51.650;-0.522;2023-02-08T00:43:32;102909.20;;;-0.70
68911;BMP180;55953;51.650;-0.522;2023-02-08T00:46:02;102910.40;;;-0.70
68911;BMP180;55953;51.650;-0.522;2023-02-08T00:48:31;102911.40;;;-0.70
68911;BMP180;55953;51.650;-0.522;2023-02-08T00:51:06;102909.60;;;-0.60
68911;BMP180;55953;51.650;-0.522;2023-02-08T00:53:38;102903.20;;;-0.68
68911;BMP180;55953;51.650;-0.522;2023-02-08T00:56:08;102902.60;;;-0.70
68911;BMP180;55953;51.650;-0.522;2023-02-08T00:58:37;102901.20;;;-0.70
68911;BMP180;55953;51.650;-0.522;2023-02-08T01:01:06;102897.20;;;-0.70
68911;BMP180;55953;51.650;-0.522;2023-02-08T01:03:37;102897.20;;;-0.60
68911;BMP180;55953;51.650;-0.522;2023-02-08T01:06:12;102887.60;;;-0.64
68911;BMP180;55953;51.650;-0.522;2023-02-08T01:08:41;102890.20;;;-0.70
68911;BMP180;55953;51.650;-0.522;2023-02-08T01:11:17;102886.00;;;-0.70
68911;BMP180;55953;51.650;-0.522;2023-02-08T01:13:45;102886.00;;;-0.70
68911;BMP180;55953;51.650;-0.522;2023-02-08T01:16:17;102891.60;;;-0.70
68911;BMP180;55953;51.650;-0.522;2023-02-08T01:18:48;102892.80;;;-0.60
68911;BMP180;55953;51.650;-0.522;2023-02-08T01:21:20;102882.40;;;-0.70
68911;BMP180;55953;51.650;-0.522;2023-02-08T01:23:48;102882.00;;;-0.60
68911;BMP180;55953;51.650;-0.522;2023-02-08T01:26:18;102883.20;;;-0.60
68911;BMP180;55953;51.650;-0.522;2023-02-08T01:28:48;102869.60;;;-0.70
68911;BMP180;55953;51.650;-0.522;2023-02-08T01:31:31;102864.80;;;-0.80
68911;BMP180;55953;51.650;-0.522;2023-02-08T01:34:00;102871.40;;;-0.80
68911;BMP180;55953;51.650;-0.522;2023-02-08T01:36:29;102865.00;;;-0.74
68911;BMP180;55953;51.650;-0.522;2023-02-08T01:38:58;102865.20;;;-0.80
68911;BMP180;55953;51.650;-0.522;2023-02-08T01:41:34;102865.20;;;-0.80
68911;BMP180;55953;51.650;-0.522;2023-02-08T01:46:42;102865.60;;;-0.70
68911;BMP180;55953;51.650;-0.522;2023-02-08T01:49:30;102861.40;;;-0.70
68911;BMP180;55953;51.650;-0.522;2023-02-08T01:52:07;102857.60;;;-0.80
68911;BMP180;55953;51.650;-0.522;2023-02-08T01:54:46;102853.00;;;-0.80
68911;BMP180;55953;51.650;-0.522;2023-02-08T01:57:20;102856.80;;;-0.90
68911;BMP180;55953;51.650;-0.522;2023-02-08T02:00:00;102856.20;;;-0.90
68911;BMP180;55953;51.650;-0.522;2023-02-08T02:02:41;102854.00;;;-0.80
68911;BMP180;55953;51.650;-0.522;2023-02-08T02:05:11;102859.40;;;-0.80
68911;BMP180;55953;51.650;-0.522;2023-02-08T02:07:39;102858.60;;;-0.80
68911;BMP180;55953;51.650;-0.522;2023-02-08T02:10:14;102863.20;;;-0.90
68911;BMP180;55953;51.650;-0.522;2023-02-08T02:12:44;102858.20;;;-0.88
68911;BMP180;55953;51.650;-0.522;2023-02-08T02:15:12;102853.40;;;-0.90
68911;BMP180;55953;51.650;-0.522;2023-02-08T02:17:41;102851.80;;;-1.00
68911;BMP180;55953;51.650;-0.522;2023-02-08T02:26:13;102841.00;;;-1.00
68911;BMP180;55953;51.650;-0.522;2023-02-08T02:46:27;102819.00;;;-1.30
68911;BMP180;55953;51.650;-0.522;2023-02-08T02:55:10;102802.80;;;-1.34
68911;BMP180;55953;51.650;-0.522;2023-02-08T02:57:42;102801.80;;;-1.50
68911;BMP180;55953;51.650;-0.522;2023-02-08T03:00:19;102803.40;;;-1.50
68911;BMP180;55953;51.650;-0.522;2023-02-08T03:02:48;102810.60;;;-1.40
68911;BMP180;55953;51.650;-0.522;2023-02-08T03:05:16;102805.00;;;-1.50
68911;BMP180;55953;51.650;-0.522;2023-02-08T03:08:14;102804.00;;;-1.60
68911;BMP180;55953;51.650;-0.522;2023-02-08T03:16:57;102798.20;;;-1.50
68911;BMP180;55953;51.650;-0.522;2023-02-08T03:19:30;102793.40;;;-1.40
68911;BMP180;55953;51.650;-0.522;2023-02-08T03:22:18;102787.60;;;-1.40
68911;BMP180;55953;51.650;-0.522;2023-02-08T03:25:16;102780.80;;;-1.50
68911;BMP180;55953;51.650;-0.522;2023-02-08T03:28:04;102776.00;;;-1.46
68911;BMP180;55953;51.650;-0.522;2023-02-08T03:31:12;102781.40;;;-1.54
68911;BMP180;55953;51.650;-0.522;2023-02-08T03:33:57;102779.40;;;-1.64
68911;BMP180;55953;51.650;-0.522;2023-02-08T03:36:40;102779.80;;;-1.72
68911;BMP180;55953;51.650;-0.522;2023-02-08T03:39:17;102783.60;;;-1.76
68911;BMP180;55953;51.650;-0.522;2023-02-08T03:41:50;102782.80;;;-1.70
68911;BMP180;55953;51.650;-0.522;2023-02-08T03:44:36;102784.40;;;-1.66
68911;BMP180;55953;51.650;-0.522;2023-02-08T03:47:18;102779.60;;;-1.50
68911;BMP180;55953;51.650;-0.522;2023-02-08T03:49:52;102781.40;;;-1.60
68911;BMP180;55953;51.650;-0.522;2023-02-08T03:52:22;102772.00;;;-1.60
68911;BMP180;55953;51.650;-0.522;2023-02-08T03:55:01;102777.00;;;-1.60
68911;BMP180;55953;51.650;-0.522;2023-02-08T03:57:39;102773.00;;;-1.60
68911;BMP180;55953;51.650;-0.522;2023-02-08T04:00:14;102774.80;;;-1.60
68911;BMP180;55953;51.650;-0.522;2023-02-08T04:02:54;102771.60;;;-1.66
68911;BMP180;55953;51.650;-0.522;2023-02-08T04:05:24;102767.00;;;-1.60
68911;BMP180;55953;51.650;-0.522;2023-02-08T04:07:52;102770.80;;;-1.58
68911;BMP180;55953;51.650;-0.522;2023-02-08T04:10:20;102764.60;;;-1.50
68911;BMP180;55953;51.650;-0.522;2023-02-08T04:12:48;102774.20;;;-1.60
68911;BMP180;55953;51.650;-0.522;2023-02-08T04:15:16;102763.40;;;-1.60
68911;BMP180;55953;51.650;-0.522;2023-02-08T04:17:44;102761.40;;;-1.56
68911;BMP180;55953;51.650;-0.522;2023-02-08T04:20:12;102760.80;;;-1.60
68911;BMP180;55953;51.650;-0.522;2023-02-08T04:22:40;102759.20;;;-1.60
68911;BMP180;55953;51.650;-0.522;2023-02-08T04:25:08;102754.20;;;-1.60
68911;BMP180;55953;51.650;-0.522;2023-02-08T04:27:36;102752.80;;;-1.60
68911;BMP180;55953;51.650;-0.522;2023-02-08T04:30:05;102756.20;;;-1.68
68911;BMP180;55953;51.650;-0.522;2023-02-08T04:32:33;102754.40;;;-1.60
68911;BMP180;55953;51.650;-0.522;2023-02-08T04:35:01;102753.00;;;-1.70
68911;BMP180;55953;51.650;-0.522;2023-02-08T04:37:30;102750.40;;;-1.80
68911;BMP180;55953;51.650;-0.522;2023-02-08T04:39:59;102753.00;;;-1.80
68911;BMP180;55953;51.650;-0.522;2023-02-08T04:42:27;102755.20;;;-1.90
68911;BMP180;55953;51.650;-0.522;2023-02-08T04:44:55;102761.80;;;-2.00
68911;BMP180;55953;51.650;-0.522;2023-02-08T04:47:23;102757.40;;;-1.90
68911;BMP180;55953;51.650;-0.522;2023-02-08T04:49:51;102763.40;;;-1.90
68911;BMP180;55953;51.650;-0.522;2023-02-08T04:52:19;102761.60;;;-1.90
68911;BMP180;55953;51.650;-0.522;2023-02-08T04:54:46;102766.00;;;-1.96
68911;BMP180;55953;51.650;-0.522;2023-02-08T04:57:14;102754.40;;;-1.86
68911;BMP180;55953;51.650;-0.522;2023-02-08T04:59:42;102757.80;;;-1.84
68911;BMP180;55953;51.650;-0.522;2023-02-08T05:02:10;102754.00;;;-1.90
68911;BMP180;55953;51.650;-0.522;2023-02-08T05:04:38;102754.20;;;-2.00
68911;BMP180;55953;51.650;-0.522;2023-02-08T05:07:06;102751.20;;;-1.90
68911;BMP180;55953;51.650;-0.522;2023-02-08T05:09:34;102746.00;;;-1.90
68911;BMP180;55953;51.650;-0.522;2023-02-08T05:12:02;102744.20;;;-2.00
68911;BMP180;55953;51.650;-0.522;2023-02-08T05:14:30;102749.00;;;-2.00
68911;BMP180;55953;51.650;-0.522;2023-02-08T05:16:58;102744.60;;;-1.80
68911;BMP180;55953;51.650;-0.522;2023-02-08T05:19:26;102742.00;;;-1.80
68911;BMP180;55953;51.650;-0.522;2023-02-08T05:21:54;102743.80;;;-1.82
68911;BMP180;55953;51.650;-0.522;2023-02-08T05:24:21;102747.60;;;-1.94
68911;BMP180;55953;51.650;-0.522;2023-02-08T05:26:49;102750.20;;;-2.10
68911;BMP180;55953;51.650;-0.522;2023-02-08T05:29:17;102756.20;;;-2.08
68911;BMP180;55953;51.650;-0.522;2023-02-08T05:31:45;102751.40;;;-2.10
68911;BMP180;55953;51.650;-0.522;2023-02-08T05:34:13;102750.60;;;-2.30
68911;BMP180;55953;51.650;-0.522;2023-02-08T05:36:41;102743.80;;;-2.40
68911;BMP180;55953;51.650;-0.522;2023-02-08T05:39:09;102743.00;;;-2.40
68911;BMP180;55953;51.650;-0.522;2023-02-08T05:41:37;102748.80;;;-2.30
68911;BMP180;55953;51.650;-0.522;2023-02-08T05:44:05;102746.40;;;-2.30
68911;BMP180;55953;51.650;-0.522;2023-02-08T05:46:33;102742.80;;;-2.40
68911;BMP180;55953;51.650;-0.522;2023-02-08T05:49:05;102745.60;;;-2.36
68911;BMP180;55953;51.650;-0.522;2023-02-08T05:51:33;102745.00;;;-2.30
68911;BMP180;55953;51.650;-0.522;2023-02-08T05:54:00;102741.60;;;-2.30
68911;BMP180;55953;51.650;-0.522;2023-02-08T05:56:28;102739.60;;;-2.30
68911;BMP180;55953;51.650;-0.522;2023-02-08T05:59:00;102736.80;;;-2.30
68911;BMP180;55953;51.650;-0.522;2023-02-08T06:01:29;102739.00;;;-2.20
68911;BMP180;55953;51.650;-0.522;2023-02-08T06:03:58;102743.20;;;-2.30
68911;BMP180;55953;51.650;-0.522;2023-02-08T06:06:27;102734.40;;;-2.16
68911;BMP180;55953;51.650;-0.522;2023-02-08T06:08:55;102736.80;;;-2.10
68911;BMP180;55953;51.650;-0.522;2023-02-08T06:11:23;102740.60;;;-2.10
68911;BMP180;55953;51.650;-0.522;2023-02-08T06:13:51;102744.80;;;-2.20
68911;BMP180;55953;51.650;-0.522;2023-02-08T06:16:19;102759.40;;;-2.30
68911;BMP180;55953;51.650;-0.522;2023-02-08T06:18:47;102761.80;;;-2.30
68911;BMP180;55953;51.650;-0.522;2023-02-08T06:21:14;102757.40;;;-2.20
68911;BMP180;55953;51.650;-0.522;2023-02-08T06:23:42;102752.40;;;-2.20
68911;BMP180;55953;51.650;-0.522;2023-02-08T06:26:10;102751.80;;;-2.20
68911;BMP180;55953;51.650;-0.522;2023-02-08T06:28:38;102745.00;;;-2.20
68911;BMP180;55953;51.650;-0.522;2023-02-08T06:31:07;102749.40;;;-2.20
68911;BMP180;55953;51.650;-0.522;2023-02-08T06:33:35;102745.60;;;-2.20
68911;BMP180;55953;51.650;-0.522;2023-02-08T06:36:02;102746.60;;;-2.20
68911;BMP180;55953;51.650;-0.522;2023-02-08T06:38:30;102742.40;;;-2.14
68911;BMP180;55953;51.650;-0.522;2023-02-08T06:40:58;102745.40;;;-2.10
68911;BMP180;55953;51.650;-0.522;2023-02-08T06:43:26;102744.60;;;-2.10
68911;BMP180;55953;51.650;-0.522;2023-02-08T06:45:54;102745.60;;;-2.08
68911;BMP180;55953;51.650;-0.522;2023-02-08T06:48:22;102741.40;;;-2.10
68911;BMP180;55953;51.650;-0.522;2023-02-08T06:50:53;102745.40;;;-2.10
68911;BMP180;55953;51.650;-0.522;2023-02-08T06:53:21;102740.80;;;-2.20
68911;BMP180;55953;51.650;-0.522;2023-02-08T06:55:50;102738.60;;;-2.30
68911;BMP180;55953;51.650;-0.522;2023-02-08T06:58:19;102739.40;;;-2.40
68911;BMP180;55953;51.650;-0.522;2023-02-08T07:00:47;102731.00;;;-2.40
68911;BMP180;55953;51.650;-0.522;2023-02-08T07:03:15;102738.80;;;-2.40
68911;BMP180;55953;51.650;-0.522;2023-02-08T07:05:44;102739.60;;;-2.40
68911;BMP180;55953;51.650;-0.522;2023-02-08T07:08:32;102734.60;;;-2.40
68911;BMP180;55953;51.650;-0.522;2023-02-08T07:11:10;102738.60;;;-2.48
68911;BMP180;55953;51.650;-0.522;2023-02-08T07:13:39;102735.80;;;-2.40
68911;BMP180;55953;51.650;-0.522;2023-02-08T07:16:09;102744.20;;;-2.40
68911;BMP180;55953;51.650;-0.522;2023-02-08T07:18:37;102748.20;;;-2.40
68911;BMP180;55953;51.650;-0.522;2023-02-08T07:21:05;102745.40;;;-2.50
68911;BMP180;55953;51.650;-0.522;2023-02-08T07:23:33;102743.80;;;-2.50
68911;BMP180;55953;51.650;-0.522;2023-02-08T07:26:08;102749.80;;;-2.50
68911;BMP180;55953;51.650;-0.522;2023-02-08T07:28:37;102738.60;;;-2.50
68911;BMP180;55953;51.650;-0.522;2023-02-08T07:31:11;102736.00;;;-2.60
68911;BMP180;55953;51.650;-0.522;2023-02-08T07:33:41;102738.40;;;-2.70
68911;BMP180;55953;51.650;-0.522;2023-02-08T07:36:10;102731.00;;;-2.70
68911;BMP180;55953;51.650;-0.522;2023-02-08T07:38:38;102731.00;;;-2.70
68911;BMP180;55953;51.650;-0.522;2023-02-08T07:41:11;102734.60;;;-2.70
68911;BMP180;55953;51.650;-0.522;2023-02-08T07:43:40;102737.20;;;-2.66
68911;BMP180;55953;51.650;-0.522;2023-02-08T07:46:20;102730.00;;;-2.64
68911;BMP180;55953;51.650;-0.522;2023-02-08T07:48:48;102723.40;;;-2.60
68911;BMP180;55953;51.650;-0.522;2023-02-08T07:51:17;102729.40;;;-2.70
68911;BMP180;55953;51.650;-0.522;2023-02-08T07:53:45;102734.00;;;-2.60
68911;BMP180;55953;51.650;-0.522;2023-02-08T07:56:13;102732.80;;;-2.60
68911;BMP180;55953;51.650;-0.522;2023-02-08T07:58:41;102732.60;;;-2.40
68911;BMP180;55953;51.650;-0.522;2023-02-08T08:01:09;102734.80;;;-2.40
68911;BMP180;55953;51.650;-0.522;2023-02-08T08:03:50;102742.80;;;-2.50
68911;BMP180;55953;51.650;-0.522;2023-02-08T08:06:20;102737.00;;;-2.60
68911;BMP180;55953;51.650;-0.522;2023-02-08T08:08:49;102738.80;;;-2.60
68911;BMP180;55953;51.650;-0.522;2023-02-08T08:11:19;102738.80;;;-2.66
68911;BMP180;55953;51.650;-0.522;2023-02-08T08:13:49;102740.80;;;-2.50
68911;BMP180;55953;51.650;-0.522;2023-02-08T08:16:18;102737.80;;;-2.20
68911;BMP180;55953;51.650;-0.522;2023-02-08T08:18:46;102739.60;;;-2.00
68911;BMP180;55953;51.650;-0.522;2023-02-08T08:21:15;102735.00;;;-2.00
68911;BMP180;55953;51.650;-0.522;2023-02-08T08:23:43;102726.80;;;-1.90
68911;BMP180;55953;51.650;-0.522;2023-02-08T08:26:18;102723.40;;;-1.82
68911;BMP180;55953;51.650;-0.522;2023-02-08T08:28:47;102718.40;;;-1.60
68911;BMP180;55953;51.650;-0.522;2023-02-08T08:31:20;102718.60;;;-1.50
68911;BMP180;55953;51.650;-0.522;2023-02-08T08:33:49;102715.00;;;-1.32
68911;BMP180;55953;51.650;-0.522;2023-02-08T08:36:17;102713.80;;;-1.30
68911;BMP180;55953;51.650;-0.522;2023-02-08T08:38:45;102713.60;;;-1.20
68911;BMP180;55953;51.650;-0.522;2023-02-08T08:41:15;102715.80;;;-1.20
68911;BMP180;55953;51.650;-0.522;2023-02-08T08:43:45;102711.20;;;-1.10
68911;BMP180;55953;51.650;-0.522;2023-02-08T08:46:13;102707.20;;;-1.00
68911;BMP180;55953;51.650;-0.522;2023-02-08T08:48:44;102706.60;;;-1.04
68911;BMP180;55953;51.650;-0.522;2023-02-08T08:51:13;102710.60;;;-0.92
68911;BMP180;55953;51.650;-0.522;2023-02-08T08:53:41;102712.80;;;-0.72
68911;BMP180;55953;51.650;-0.522;2023-02-08T08:56:09;102714.20;;;-0.64
68911;BMP180;55953;51.650;-0.522;2023-02-08T08:58:37;102714.20;;;-0.50
68911;BMP180;55953;51.650;-0.522;2023-02-08T09:01:05;102712.80;;;-0.40
68911;BMP180;55953;51.650;-0.522;2023-02-08T09:03:33;102712.00;;;-0.30
68911;BMP180;55953;51.650;-0.522;2023-02-08T09:06:01;102712.60;;;-0.18
68911;BMP180;55953;51.650;-0.522;2023-02-08T09:08:29;102710.80;;;0.06
68911;BMP180;55953;51.650;-0.522;2023-02-08T09:11:04;102703.80;;;0.20
68911;BMP180;55953;51.650;-0.522;2023-02-08T09:13:34;102700.20;;;0.20
68911;BMP180;55953;51.650;-0.522;2023-02-08T09:16:07;102698.80;;;0.24
68911;BMP180;55953;51.650;-0.522;2023-02-08T09:18:38;102697.00;;;0.28
68911;BMP180;55953;51.650;-0.522;2023-02-08T09:21:20;102695.60;;;0.40
68911;BMP180;55953;51.650;-0.522;2023-02-08T09:23:48;102695.80;;;0.58
68911;BMP180;55953;51.650;-0.522;2023-02-08T09:26:18;102688.60;;;0.60
68911;BMP180;55953;51.650;-0.522;2023-02-08T09:28:46;102690.00;;;0.78
68911;BMP180;55953;51.650;-0.522;2023-02-08T09:31:27;102698.40;;;0.80
68911;BMP180;55953;51.650;-0.522;2023-02-08T09:33:59;102706.20;;;0.70
68911;BMP180;55953;51.650;-0.522;2023-02-08T09:36:32;102702.60;;;0.60
68911;BMP180;55953;51.650;-0.522;2023-02-08T09:39:09;102702.80;;;0.60
68911;BMP180;55953;51.650;-0.522;2023-02-08T09:44:54;102709.40;;;0.70
68911;BMP180;55953;51.650;-0.522;2023-02-08T09:47:43;102705.60;;;0.72
68911;BMP180;55953;51.650;-0.522;2023-02-08T09:50:45;102705.80;;;0.80
68911;BMP180;55953;51.650;-0.522;2023-02-08T09:53:40;102697.40;;;0.90
68911;BMP180;55953;51.650;-0.522;2023-02-08T09:56:15;102696.00;;;1.10
68911;BMP180;55953;51.650;-0.522;2023-02-08T09:58:50;102698.80;;;1.30
68911;BMP180;55953;51.650;-0.522;2023-02-08T10:01:30;102702.00;;;1.30
68911;BMP180;55953;51.650;-0.522;2023-02-08T10:04:29;102701.00;;;1.30
68911;BMP180;55953;51.650;-0.522;2023-02-08T10:07:00;102699.80;;;1.26
68911;BMP180;55953;51.650;-0.522;2023-02-08T10:09:29;102692.00;;;1.40
68911;BMP180;55953;51.650;-0.522;2023-02-08T10:14:43;102704.60;;;1.52
68911;BMP180;55953;51.650;-0.522;2023-02-08T10:20:49;102682.80;;;1.60
68911;BMP180;55953;51.650;-0.522;2023-02-08T10:23:42;102677.80;;;1.70
68911;BMP180;55953;51.650;-0.522;2023-02-08T10:26:36;102667.80;;;1.80
68911;BMP180;55953;51.650;-0.522;2023-02-08T10:37:58;102666.20;;;2.10
68911;BMP180;55953;51.650;-0.522;2023-02-08T10:40:38;102674.80;;;2.02
68911;BMP180;55953;51.650;-0.522;2023-02-08T10:49:19;102668.60;;;2.18
68911;BMP180;55953;51.650;-0.522;2023-02-08T10:51:49;102666.40;;;2.36
68911;BMP180;55953;51.650;-0.522;2023-02-08T10:54:17;102664.80;;;2.40
68911;BMP180;55953;51.650;-0.522;2023-02-08T10:56:56;102663.00;;;2.50
68911;BMP180;55953;51.650;-0.522;2023-02-08T10:59:30;102658.60;;;2.60
68911;BMP180;55953;51.650;-0.522;2023-02-08T11:01:59;102650.40;;;2.80
68911;BMP180;55953;51.650;-0.522;2023-02-08T11:04:27;102645.60;;;2.90
68911;BMP180;55953;51.650;-0.522;2023-02-08T11:06:55;102643.60;;;3.00
68911;BMP180;55953;51.650;-0.522;2023-02-08T11:09:27;102647.60;;;3.12
68911;BMP180;55953;51.650;-0.522;2023-02-08T11:11:59;102648.00;;;3.22
68911;BMP180;55953;51.650;-0.522;2023-02-08T11:14:38;102648.40;;;3.30
68911;BMP180;55953;51.650;-0.522;2023-02-08T11:17:30;102640.60;;;3.40
68911;BMP180;55953;51.650;-0.522;2023-02-08T11:19:59;102629.00;;;3.58
68911;BMP180;55953;51.650;-0.522;2023-02-08T11:22:29;102630.00;;;3.70
68911;BMP180;55953;51.650;-0.522;2023-02-08T11:25:05;102625.40;;;3.78
68911;BMP180;55953;51.650;-0.522;2023-02-08T11:27:37;102625.00;;;3.90
68911;BMP180;55953;51.650;-0.522;2023-02-08T11:32:44;102614.20;;;3.90
68911;BMP180;55953;51.650;-0.522;2023-02-08T11:35:23;102610.80;;;3.90
68911;BMP180;55953;51.650;-0.522;2023-02-08T11:37:56;102606.80;;;4.00
68911;BMP180;55953;51.650;-0.522;2023-02-08T11:42:59;102611.60;;;4.10
68911;BMP180;55953;51.650;-0.522;2023-02-08T11:45:34;102600.60;;;4.20
68911;BMP180;55953;51.650;-0.522;2023-02-08T11:50:57;102598.80;;;4.30
68911;BMP180;55953;51.650;-0.522;2023-02-08T11:53:38;102588.40;;;4.34
68911;BMP180;55953;51.650;-0.522;2023-02-08T11:56:29;102593.40;;;4.40
68911;BMP180;55953;51.650;-0.522;2023-02-08T11:59:18;102584.60;;;4.70
68911;BMP180;55953;51.650;-0.522;2023-02-08T12:01:46;102575.00;;;4.86
68911;BMP180;55953;51.650;-0.522;2023-02-08T12:04:16;102569.60;;;4.90
68911;BMP180;55953;51.650;-0.522;2023-02-08T12:12:24;102549.20;;;4.88
68911;BMP180;55953;51.650;-0.522;2023-02-08T12:20:32;102533.20;;;4.98
68911;BMP180;55953;51.650;-0.522;2023-02-08T12:26:25;102520.60;;;5.00
68911;BMP180;55953;51.650;-0.522;2023-02-08T12:29:15;102518.40;;;5.20
68911;BMP180;55953;51.650;-0.522;2023-02-08T12:37:51;102504.60;;;5.40
68911;BMP180;55953;51.650;-0.522;2023-02-08T12:43:55;102500.20;;;5.58
68911;BMP180;55953;51.650;-0.522;2023-02-08T12:46:43;102493.60;;;5.70
68911;BMP180;55953;51.650;-0.522;2023-02-08T12:54:59;102473.00;;;6.20
68911;BMP180;55953;51.650;-0.522;2023-02-08T12:57:30;102468.80;;;6.48
68911;BMP180;55953;51.650;-0.522;2023-02-08T13:00:22;102464.00;;;6.60
68911;BMP180;55953;51.650;-0.522;2023-02-08T13:05:54;102460.40;;;6.80
68911;BMP180;55953;51.650;-0.522;2023-02-08T13:08:46;102448.80;;;6.80
68911;BMP180;55953;51.650;-0.522;2023-02-08T13:16:52;102441.20;;;7.12
68911;BMP180;55953;51.650;-0.522;2023-02-08T13:19:53;102436.80;;;7.10
68911;BMP180;55953;51.650;-0.522;2023-02-08T13:22:36;102430.00;;;7.00
68911;BMP180;55953;51.650;-0.522;2023-02-08T13:25:19;102427.00;;;7.00
68911;BMP180;55953;51.650;-0.522;2023-02-08T13:27:47;102422.80;;;6.90
68911;BMP180;55953;51.650;-0.522;2023-02-08T13:30:20;102415.60;;;6.90
68911;BMP180;55953;51.650;-0.522;2023-02-08T13:32:50;102414.60;;;6.86
68911;BMP180;55953;51.650;-0.522;2023-02-08T13:35:25;102412.00;;;6.82
68911;BMP180;55953;51.650;-0.522;2023-02-08T13:38:03;102403.20;;;6.90
68911;BMP180;55953;51.650;-0.522;2023-02-08T13:40:35;102405.80;;;6.90
68911;BMP180;55953;51.650;-0.522;2023-02-08T13:43:06;102399.40;;;6.90
68911;BMP180;55953;51.650;-0.522;2023-02-08T13:45:42;102388.80;;;6.94
68911;BMP180;55953;51.650;-0.522;2023-02-08T13:48:15;102384.80;;;6.90
68911;BMP180;55953;51.650;-0.522;2023-02-08T13:53:15;102361.20;;;7.00
68911;BMP180;55953;51.650;-0.522;2023-02-08T13:55:57;102352.20;;;7.00
68911;BMP180;55953;51.650;-0.522;2023-02-08T14:03:26;102347.80;;;7.00
68911;BMP180;55953;51.650;-0.522;2023-02-08T14:11:58;102344.60;;;7.04
68911;BMP180;55953;51.650;-0.522;2023-02-08T14:14:32;102344.60;;;7.10
68911;BMP180;55953;51.650;-0.522;2023-02-08T14:17:17;102340.80;;;7.10
68911;BMP180;55953;51.650;-0.522;2023-02-08T14:19:57;102335.80;;;7.10
68911;BMP180;55953;51.650;-0.522;2023-02-08T14:22:39;102327.00;;;7.20
68911;BMP180;55953;51.650;-0.522;2023-02-08T14:25:22;102320.40;;;7.20
68911;BMP180;55953;51.650;-0.522;2023-02-08T14:27:57;102324.80;;;7.30
68911;BMP180;55953;51.650;-0.522;2023-02-08T14:30:33;102316.00;;;7.30
68911;BMP180;55953;51.650;-0.522;2023-02-08T14:35:41;102308.00;;;7.30
68911;BMP180;55953;51.650;-0.522;2023-02-08T14:40:54;102298.40;;;7.40
68911;BMP180;55953;51.650;-0.522;2023-02-08T14:43:38;102295.40;;;7.40
68911;BMP180;55953;51.650;-0.522;2023-02-08T14:49:11;102283.80;;;7.40
68911;BMP180;55953;51.650;-0.522;2023-02-08T14:51:52;102283.40;;;7.44
68911;BMP180;55953;51.650;-0.522;2023-02-08T14:54:47;102291.00;;;7.50
68911;BMP180;55953;51.650;-0.522;2023-02-08T14:57:29;102280.60;;;7.50
68911;BMP180;55953;51.650;-0.522;2023-02-08T15:00:00;102277.40;;;7.50
68911;BMP180;55953;51.650;-0.522;2023-02-08T15:02:29;102276.00;;;7.50
68911;BMP180;55953;51.650;-0.522;2023-02-08T15:04:58;102277.40;;;7.50
68911;BMP180;55953;51.650;-0.522;2023-02-08T15:07:37;102279.60;;;7.60
68911;BMP180;55953;51.650;-0.522;2023-02-08T15:10:13;102282.80;;;7.60
68911;BMP180;55953;51.650;-0.522;2023-02-08T15:12:51;102269.40;;;7.50
68911;BMP180;55953;51.650;-0.522;2023-02-08T15:15:41;102265.60;;;7.50
68911;BMP180;55953;51.650;-0.522;2023-02-08T15:18:26;102267.60;;;7.50
68911;BMP180;55953;51.650;-0.522;2023-02-08T15:21:02;102266.00;;;7.50
68911;BMP180;55953;51.650;-0.522;2023-02-08T15:23:31;102266.00;;;7.54
68911;BMP180;55953;51.650;-0.522;2023-02-08T15:26:16;102265.00;;;7.60
68911;BMP180;55953;51.650;-0.522;2023-02-08T15:28:46;102262.60;;;7.60
68911;BMP180;55953;51.650;-0.522;2023-02-08T15:31:21;102253.00;;;7.60
68911;BMP180;55953;51.650;-0.522;2023-02-08T15:33:52;102248.20;;;7.58
68911;BMP180;55953;51.650;-0.522;2023-02-08T15:36:32;102246.00;;;7.60
68911;BMP180;55953;51.650;-0.522;2023-02-08T15:39:10;102242.60;;;7.50
68911;BMP180;55953;51.650;-0.522;2023-02-08T15:41:39;102241.00;;;7.50
68911;BMP180;55953;51.650;-0.522;2023-02-08T15:44:17;102237.80;;;7.50
68911;BMP180;55953;51.650;-0.522;2023-02-08T15:46:46;102244.40;;;7.46
68911;BMP180;55953;51.650;-0.522;2023-02-08T15:49:44;102244.40;;;7.42
68911;BMP180;55953;51.650;-0.522;2023-02-08T15:52:18;102239.20;;;7.42
68911;BMP180;55953;51.650;-0.522;2023-02-08T15:54:48;102239.80;;;7.40
68911;BMP180;55953;51.650;-0.522;2023-02-08T16:00:19;102239.80;;;7.30
68911;BMP180;55953;51.650;-0.522;2023-02-08T16:02:55;102230.00;;;7.20
68911;BMP180;55953;51.650;-0.522;2023-02-08T16:05:27;102235.60;;;7.18
68911;BMP180;55953;51.650;-0.522;2023-02-08T16:07:57;102235.60;;;7.10
68911;BMP180;55953;51.650;-0.522;2023-02-08T16:10:34;102231.80;;;7.10
68911;BMP180;55953;51.650;-0.522;2023-02-08T16:13:20;102229.40;;;7.00
68911;BMP180;55953;51.650;-0.522;2023-02-08T16:16:19;102226.80;;;6.96
68911;BMP180;55953;51.650;-0.522;2023-02-08T16:18:59;102222.80;;;6.90
68911;BMP180;55953;51.650;-0.522;2023-02-08T16:21:40;102220.60;;;6.80
68911;BMP180;55953;51.650;-0.522;2023-02-08T16:27:04;102224.40;;;6.70
68911;BMP180;55953;51.650;-0.522;2023-02-08T16:29:31;102224.00;;;6.60
68911;BMP180;55953;51.650;-0.522;2023-02-08T16:32:31;102226.60;;;6.50
68911;BMP180;55953;51.650;-0.522;2023-02-08T16:35:11;102234.80;;;6.42
68911;BMP180;55953;51.650;-0.522;2023-02-08T16:37:39;102235.40;;;6.30
68911;BMP180;55953;51.650;-0.522;2023-02-08T16:48:42;102230.60;;;5.96